Time;durP1;ratioP1;P1;durP2;ratioP2;P2;SDS_P1;SDS_P2;PMS_P1;PMS_P2;Temp;Humidity;BMP_temperature;BMP_pressure;BME280_temperature;BME280_humidity;BME280_pressure;Samples;Min_cycle;Max_cycle;Signal;HPM_P1;HPM_P2
2021/01/14 00:01:00;;;;;;;13.60;7.50;;;26.10;82.60;;;;;;6290536;22;20233;-90
2021/01/14 00:03:34;;;;;;;9.48;6.47;;;26.10;84.20;;;;;;6295484;22;20003;-87
2021/01/14 00:06:06;;;;;;;8.73;5.43;;;26.10;84.40;;;;;;6267158;22;20263;-87
2021/01/14 00:09:09;;;;;;;8.32;4.38;;;26.00;85.10;;;;;;6267626;22;20004;-90
2021/01/14 00:11:36;;;;;;;8.13;4.65;;;26.00;83.90;;;;;;6257430;23;20012;-89
2021/01/14 00:14:08;;;;;;;7.00;4.13;;;26.00;84.20;;;;;;6338476;22;20003;-88
2021/01/14 00:16:48;;;;;;;8.50;4.00;;;26.00;85.50;;;;;;6357143;22;20002;-89
2021/01/14 00:19:20;;;;;;;7.32;3.70;;;26.00;85.40;;;;;;6330153;22;19994;-89
2021/01/14 00:21:50;;;;;;;5.95;3.53;;;26.00;85.00;;;;;;6353609;22;20003;-89
2021/01/14 00:24:48;;;;;;;7.53;3.38;;;26.00;84.30;;;;;;6324795;22;20005;-90
2021/01/14 00:27:24;;;;;;;4.97;3.22;;;26.00;84.20;;;;;;6326466;22;19999;-89
2021/01/14 00:29:57;;;;;;;7.90;2.70;;;26.00;84.50;;;;;;6327558;22;20057;-89
2021/01/14 00:32:34;;;;;;;5.88;3.08;;;25.90;84.70;;;;;;6326632;22;20064;-89
2021/01/14 00:35:08;;;;;;;4.05;2.83;;;25.90;85.10;;;;;;6329919;22;20003;-90
2021/01/14 00:37:55;;;;;;;6.20;3.17;;;25.80;84.10;;;;;;6328115;22;20001;-90
2021/01/14 00:40:47;;;;;;;;;;;;;;;;;;;;;
2021/01/14 00:43:26;;;;;;;6.72;3.38;;;25.70;84.60;;;;;;6334385;22;20005;-87
2021/01/14 00:46:07;;;;;;;5.13;3.33;;;25.70;84.10;;;;;;6351166;22;20007;-90
2021/01/14 00:48:35;;;;;;;7.53;2.97;;;25.70;84.70;;;;;;6326447;22;20022;-89
2021/01/14 00:51:09;;;;;;;4.35;2.63;;;25.60;84.60;;;;;;6299742;22;19999;-93
2021/01/14 00:53:43;;;;;;;5.68;3.13;;;25.50;84.40;;;;;;6349971;22;20018;-89
2021/01/14 00:56:15;;;;;;;5.90;2.70;;;25.50;85.10;;;;;;6353140;22;20052;-91
2021/01/14 00:59:29;;;;;;;4.50;3.00;;;25.40;85.40;;;;;;6355824;22;20085;-89
2021/01/14 01:02:02;;;;;;;5.05;2.80;;;25.20;85.00;;;;;;6292456;22;20014;-89
2021/01/14 01:04:41;;;;;;;5.53;2.85;;;25.20;85.00;;;;;;6353249;22;19999;-89
2021/01/14 01:07:16;;;;;;;8.55;3.92;;;25.20;85.50;;;;;;6352362;22;20003;-88
2021/01/14 01:09:44;;;;;;;5.10;2.90;;;25.20;84.80;;;;;;6349364;22;20010;-88
2021/01/14 01:12:11;;;;;;;6.68;3.42;;;25.20;84.40;;;;;;6351675;22;20045;-89
2021/01/14 01:14:47;;;;;;;6.13;3.05;;;25.10;85.40;;;;;;6352471;22;20005;-92
2021/01/14 01:17:32;;;;;;;4.47;3.33;;;25.10;85.20;;;;;;6352012;22;19995;-87
2021/01/14 01:20:01;;;;;;;6.75;3.00;;;25.10;85.30;;;;;;6350715;22;20014;-88
2021/01/14 01:22:31;;;;;;;8.52;3.90;;;25.00;85.30;;;;;;6349720;22;20070;-88
2021/01/14 01:25:24;;;;;;;4.93;3.17;;;24.90;85.40;;;;;;6349935;22;20003;-86
2021/01/14 01:27:57;;;;;;;5.10;2.65;;;24.90;84.60;;;;;;6361311;22;20009;-87
2021/01/14 01:30:26;;;;;;;37.55;16.17;;;24.90;84.60;;;;;;6350447;22;20186;-88
2021/01/14 01:32:52;;;;;;;5.07;2.90;;;24.90;84.90;;;;;;6324681;22;20023;-87
2021/01/14 01:35:34;;;;;;;4.70;3.05;;;24.90;85.30;;;;;;6351264;22;19995;-85
2021/01/14 01:38:22;;;;;;;5.90;3.25;;;24.80;85.00;;;;;;6327398;22;20227;-87
2021/01/14 01:40:56;;;;;;;6.45;2.80;;;24.80;85.50;;;;;;6326931;22;19998;-89
2021/01/14 01:43:34;;;;;;;5.22;2.90;;;24.60;85.20;;;;;;6351117;22;20002;-88
2021/01/14 01:46:01;;;;;;;7.03;3.17;;;24.50;85.00;;;;;;6352748;22;20172;-88
2021/01/14 01:48:42;;;;;;;8.25;2.63;;;24.60;84.70;;;;;;6353938;22;20199;-89
2021/01/14 01:51:11;;;;;;;4.57;3.20;;;24.60;84.60;;;;;;6355732;22;20234;-90
2021/01/14 01:53:38;;;;;;;5.65;2.60;;;24.50;85.30;;;;;;6327156;22;20052;-88
2021/01/14 01:56:09;;;;;;;5.43;2.90;;;24.50;84.80;;;;;;6351499;22;19998;-91
2021/01/14 01:58:40;;;;;;;7.25;4.53;;;24.50;84.50;;;;;;6325631;22;20183;-90
2021/01/14 02:01:10;;;;;;;5.45;2.72;;;24.50;84.60;;;;;;6354151;22;19995;-89
2021/01/14 02:03:38;;;;;;;5.00;2.72;;;24.50;84.50;;;;;;6352635;22;19999;-92
2021/01/14 02:06:13;;;;;;;6.05;2.47;;;24.50;84.50;;;;;;6352768;22;19995;-90
2021/01/14 02:08:59;;;;;;;5.97;2.90;;;24.50;84.80;;;;;;6353525;22;20006;-88
2021/01/14 02:11:29;;;;;;;6.82;2.78;;;24.40;84.20;;;;;;6354457;22;20021;-89
2021/01/14 02:14:18;;;;;;;4.35;2.55;;;24.40;84.70;;;;;;6353197;22;20040;-90
2021/01/14 02:16:50;;;;;;;4.43;2.45;;;24.30;84.50;;;;;;6355765;22;19998;-90
2021/01/14 02:19:29;;;;;;;6.57;2.83;;;24.30;84.70;;;;;;6354786;22;19995;-89
2021/01/14 02:22:08;;;;;;;5.60;2.60;;;24.30;84.00;;;;;;6355763;22;20284;-90
2021/01/14 02:28:20;;;;;;;3.80;2.40;;;24.40;83.90;;;;;;6334671;22;20003;-91
2021/01/14 02:30:50;;;;;;;5.10;2.55;;;24.30;84.30;;;;;;6354861;22;20029;-90
2021/01/14 02:33:29;;;;;;;3.22;2.35;;;24.30;84.00;;;;;;6356669;22;20006;-90
2021/01/14 02:36:38;;;;;;;5.85;2.47;;;24.30;84.00;;;;;;6332834;22;19999;-88
2021/01/14 02:39:25;;;;;;;3.70;2.40;;;24.20;84.50;;;;;;6338779;22;20002;-90
2021/01/14 02:41:55;;;;;;;4.75;2.45;;;24.20;84.90;;;;;;6309597;22;19995;-90
2021/01/14 02:44:27;;;;;;;4.38;2.20;;;24.20;84.30;;;;;;6279481;22;20013;-87
2021/01/14 02:46:59;;;;;;;6.10;2.60;;;24.20;84.60;;;;;;6328444;22;20014;-91
2021/01/14 02:50:14;;;;;;;2.67;2.13;;;24.20;84.50;;;;;;6332452;22;20086;-87
2021/01/14 02:52:37;;;;;;;4.13;2.60;;;24.20;84.40;;;;;;6331688;22;20041;-90
2021/01/14 02:55:14;;;;;;;5.25;2.83;;;24.20;84.60;;;;;;6357650;22;19998;-90
2021/01/14 02:58:00;;;;;;;3.67;2.30;;;24.10;84.90;;;;;;6334974;22;19987;-91
2021/01/14 03:00:27;;;;;;;5.25;2.30;;;24.10;85.00;;;;;;6305069;22;20070;-90
2021/01/14 03:02:54;;;;;;;5.53;2.63;;;24.10;84.30;;;;;;6325753;22;20119;-89
2021/01/14 03:05:20;;;;;;;3.72;2.42;;;24.00;85.50;;;;;;6351637;22;20230;-89
2021/01/14 03:07:47;;;;;;;5.40;2.42;;;24.00;84.60;;;;;;6326996;22;20044;-92
2021/01/14 03:10:14;;;;;;;5.40;2.90;;;24.00;85.70;;;;;;6328193;22;20005;-92
2021/01/14 03:12:45;;;;;;;5.47;3.15;;;23.90;85.80;;;;;;6302217;22;20044;-88
2021/01/14 03:15:22;;;;;;;7.10;2.70;;;23.90;85.30;;;;;;6325952;22;20023;-90
2021/01/14 03:17:53;;;;;;;4.10;2.60;;;23.90;85.30;;;;;;6324352;22;20024;-91
2021/01/14 03:20:28;;;;;;;6.10;2.88;;;23.90;85.30;;;;;;6331252;22;20310;-90
2021/01/14 03:23:04;;;;;;;3.45;2.35;;;23.90;85.50;;;;;;6324917;22;19999;-90
2021/01/14 03:25:31;;;;;;;8.07;4.65;;;23.90;85.40;;;;;;6329428;22;20267;-90
2021/01/14 03:27:58;;;;;;;6.82;3.42;;;23.80;85.50;;;;;;6305836;22;19995;-90
2021/01/14 03:30:26;;;;;;;6.68;2.92;;;23.80;85.10;;;;;;6356613;22;20021;-89
2021/01/14 03:33:04;;;;;;;6.35;2.65;;;23.80;85.40;;;;;;6352426;22;20018;-92
2021/01/14 03:35:30;;;;;;;2.97;2.40;;;23.80;85.50;;;;;;6327662;22;20007;-91
2021/01/14 03:38:00;;;;;;;6.55;3.10;;;23.70;85.50;;;;;;6326731;22;19994;-90
2021/01/14 03:40:36;;;;;;;5.00;2.80;;;23.70;85.30;;;;;;6352404;22;20299;-90
2021/01/14 03:43:05;;;;;;;5.93;2.70;;;23.70;85.40;;;;;;6354204;22;20149;-91
2021/01/14 03:45:38;;;;;;;4.55;2.45;;;23.70;85.30;;;;;;6350135;22;20006;-89
2021/01/14 03:48:06;;;;;;;4.70;2.72;;;23.70;85.00;;;;;;6350577;22;20017;-90
2021/01/14 03:50:34;;;;;;;4.93;2.38;;;23.70;85.40;;;;;;6356132;22;20003;-89
2021/01/14 03:53:08;;;;;;;3.83;2.40;;;23.70;85.00;;;;;;6353576;22;20049;-91
2021/01/14 03:55:40;;;;;;;5.70;2.40;;;23.70;85.00;;;;;;6354180;22;20003;-91
2021/01/14 03:58:07;;;;;;;;;;;23.70;84.60;;;;;;6353075;22;20054;-89
2021/01/14 04:00:33;;;;;;;3.97;2.28;;;23.60;84.80;;;;;;6353512;22;19921;-90
2021/01/14 04:03:02;;;;;;;5.93;2.45;;;23.70;85.10;;;;;;6351603;22;20263;-91
2021/01/14 04:05:29;;;;;;;5.55;2.08;;;23.60;85.00;;;;;;6350636;22;20059;-89
2021/01/14 04:07:55;;;;;;;4.35;2.50;;;23.50;84.90;;;;;;6351485;22;19995;-89
2021/01/14 04:10:27;;;;;;;5.25;2.63;;;23.50;84.80;;;;;;6352548;22;20007;-89
2021/01/14 04:12:56;;;;;;;5.90;2.30;;;23.50;84.70;;;;;;6354521;22;19994;-91
2021/01/14 04:15:22;;;;;;;4.32;2.20;;;23.50;84.50;;;;;;6354033;22;20003;-88
2021/01/14 04:17:52;;;;;;;5.10;2.22;;;23.50;84.30;;;;;;6354488;22;19991;-89
2021/01/14 04:20:19;;;;;;;3.38;2.30;;;23.50;83.90;;;;;;6353174;22;20005;-90
2021/01/14 04:22:45;;;;;;;3.60;2.47;;;23.50;84.00;;;;;;6355314;22;19998;-91
2021/01/14 04:25:19;;;;;;;5.47;2.95;;;23.50;83.60;;;;;;6354098;22;20109;-89
2021/01/14 04:27:52;;;;;;;4.65;3.10;;;23.40;84.10;;;;;;6329755;22;20015;-90
2021/01/14 04:30:22;;;;;;;3.60;2.42;;;23.40;84.20;;;;;;6355911;22;20209;-87
2021/01/14 04:32:58;;;;;;;4.97;2.70;;;23.40;84.40;;;;;;6355273;22;20057;-90
2021/01/14 04:35:26;;;;;;;4.93;2.50;;;23.40;85.40;;;;;;6326773;22;20034;-89
2021/01/14 04:37:52;;;;;;;3.45;2.53;;;23.40;85.70;;;;;;6331331;22;20048;-88
2021/01/14 04:40:20;;;;;;;6.13;2.80;;;23.30;86.50;;;;;;6329192;22;20279;-86
2021/01/14 04:42:52;;;;;;;4.18;2.78;;;23.30;85.10;;;;;;6332122;22;20021;-87
2021/01/14 04:45:22;;;;;;;3.85;2.50;;;23.30;86.10;;;;;;6360937;22;19995;-88
2021/01/14 04:47:51;;;;;;;5.80;3.45;;;23.30;85.60;;;;;;6359978;22;19998;-87
2021/01/14 04:50:20;;;;;;;4.55;3.15;;;23.20;85.60;;;;;;6360116;22;20068;-85
2021/01/14 04:52:48;;;;;;;5.22;3.38;;;23.10;86.40;;;;;;6332702;22;20030;-86
2021/01/14 04:55:21;;;;;;;5.45;3.05;;;23.00;85.20;;;;;;6331922;22;20274;-89
2021/01/14 04:57:59;;;;;;;4.75;2.50;;;23.00;84.90;;;;;;6331090;22;19994;-87
2021/01/14 05:00:27;;;;;;;4.05;2.40;;;23.10;85.00;;;;;;6360038;22;20166;-87
2021/01/14 05:03:20;;;;;;;5.20;2.60;;;23.00;85.00;;;;;;6331333;22;20014;-86
2021/01/14 05:05:47;;;;;;;4.13;2.90;;;23.00;85.20;;;;;;6331686;22;20026;-86
2021/01/14 05:08:15;;;;;;;6.65;2.85;;;23.10;85.00;;;;;;6332612;22;19999;-87
2021/01/14 05:10:50;;;;;;;4.50;2.42;;;23.00;85.70;;;;;;6332816;22;20058;-87
2021/01/14 05:13:17;;;;;;;3.33;2.30;;;23.00;86.00;;;;;;6332211;22;20062;-87
2021/01/14 05:15:45;;;;;;;3.72;2.13;;;23.00;85.90;;;;;;6358870;22;20013;-87
2021/01/14 05:18:27;;;;;;;3.45;2.28;;;23.00;85.60;;;;;;6332034;22;20010;-86
2021/01/14 05:21:15;;;;;;;3.10;2.03;;;22.90;85.90;;;;;;6332886;22;20003;-87
2021/01/14 05:23:42;;;;;;;5.65;2.40;;;22.90;86.10;;;;;;6332199;22;19995;-86
2021/01/14 05:26:31;;;;;;;4.88;2.25;;;22.90;85.90;;;;;;6359949;22;20022;-85
2021/01/14 05:29:18;;;;;;;4.35;1.92;;;22.80;86.60;;;;;;6332484;22;20059;-86
2021/01/14 05:31:47;;;;;;;4.93;2.22;;;22.80;85.90;;;;;;6336411;22;20011;-88
2021/01/14 05:34:49;;;;;;;4.90;2.22;;;22.90;85.60;;;;;;6363039;22;19983;-96
2021/01/14 05:38:04;;;;;;;3.20;2.13;;;22.80;85.90;;;;;;6357585;22;19999;-83
2021/01/14 05:40:31;;;;;;;2.22;1.92;;;22.80;85.60;;;;;;6315055;22;19991;-89
2021/01/14 05:43:02;;;;;;;4.30;1.80;;;22.90;85.90;;;;;;6358568;22;20036;-86
2021/01/14 05:45:30;;;;;;;5.03;1.98;;;22.80;85.70;;;;;;6358148;22;19999;-87
2021/01/14 05:48:12;;;;;;;5.45;1.98;;;22.90;86.30;;;;;;6358689;22;20002;-86
2021/01/14 05:50:46;;;;;;;2.25;1.63;;;22.90;85.20;;;;;;6358543;22;20002;-87
2021/01/14 05:53:14;;;;;;;2.97;1.85;;;22.90;85.30;;;;;;6358870;22;20062;-87
2021/01/14 05:56:03;;;;;;;4.05;1.73;;;22.90;85.10;;;;;;6359849;22;20023;-93
2021/01/14 05:58:37;;;;;;;4.75;1.88;;;22.90;85.10;;;;;;6338239;22;20172;-88
2021/01/14 06:01:05;;;;;;;3.10;1.83;;;22.90;84.60;;;;;;6360082;22;20022;-87
2021/01/14 06:03:32;;;;;;;3.13;2.10;;;22.90;85.10;;;;;;6358428;22;20010;-87
2021/01/14 06:05:58;;;;;;;3.53;2.13;;;22.90;84.80;;;;;;6358220;22;20219;-88
2021/01/14 06:08:27;;;;;;;2.90;1.85;;;22.90;85.30;;;;;;6358705;22;19995;-89
2021/01/14 06:10:55;;;;;;;4.68;2.00;;;22.90;84.30;;;;;;6358530;22;20073;-89
2021/01/14 06:13:40;;;;;;;4.20;1.95;;;22.90;84.80;;;;;;6359524;22;20016;-88
2021/01/14 06:16:08;;;;;;;3.38;1.88;;;22.90;84.00;;;;;;6358154;22;20074;-89
2021/01/14 06:18:35;;;;;;;2.92;1.75;;;22.90;83.50;;;;;;6358155;22;20040;-88
2021/01/14 06:21:02;;;;;;;2.88;1.77;;;23.00;83.10;;;;;;6358451;22;20132;-88
2021/01/14 06:23:43;;;;;;;2.58;1.65;;;23.10;82.70;;;;;;6358161;22;20035;-85
2021/01/14 06:26:09;;;;;;;4.13;1.83;;;23.10;82.60;;;;;;6357941;22;20006;-87
2021/01/14 06:28:36;;;;;;;3.08;1.85;;;23.10;83.00;;;;;;6358172;22;20046;-88
2021/01/14 06:31:10;;;;;;;3.08;2.00;;;23.10;82.60;;;;;;6356540;22;20047;-89
2021/01/14 06:33:37;;;;;;;2.58;1.90;;;23.20;82.80;;;;;;6331086;22;20039;-87
2021/01/14 06:36:07;;;;;;;3.17;1.60;;;23.20;82.80;;;;;;6331566;22;20015;-87
2021/01/14 06:38:46;;;;;;;4.28;1.90;;;23.10;82.30;;;;;;6331657;22;20006;-87
2021/01/14 06:41:18;;;;;;;2.72;1.75;;;23.20;82.80;;;;;;6332080;22;20040;-88
2021/01/14 06:43:47;;;;;;;2.45;1.52;;;23.20;82.60;;;;;;6359477;22;20050;-87
2021/01/14 06:46:19;;;;;;;3.75;1.70;;;23.20;82.40;;;;;;6331544;22;20014;-87
2021/01/14 06:49:08;;;;;;;3.05;1.48;;;23.20;81.90;;;;;;6332144;22;20231;-87
2021/01/14 06:51:53;;;;;;;1.65;1.50;;;23.10;82.60;;;;;;6332263;22;20176;-87
2021/01/14 06:54:22;;;;;;;3.55;1.90;;;23.10;81.40;;;;;;6359504;22;20014;-88
2021/01/14 06:56:55;;;;;;;2.75;1.50;;;23.10;80.90;;;;;;6331764;22;20006;-87
2021/01/14 06:59:23;;;;;;;2.83;1.50;;;23.10;81.10;;;;;;6332068;22;20002;-88
2021/01/14 07:02:14;;;;;;;2.13;1.75;;;23.10;81.00;;;;;;6331675;22;20018;-88
2021/01/14 07:04:55;;;;;;;3.92;1.70;;;23.00;81.90;;;;;;6331837;22;20042;-87
2021/01/14 07:07:25;;;;;;;4.07;1.40;;;23.00;81.40;;;;;;6331875;22;20009;-88
2021/01/14 07:10:04;;;;;;;2.92;1.52;;;23.00;81.00;;;;;;6331870;22;20002;-88
2021/01/14 07:12:34;;;;;;;3.65;1.58;;;23.00;80.80;;;;;;6331858;22;20213;-88
2021/01/14 07:15:07;;;;;;;3.90;1.30;;;23.00;81.30;;;;;;6331982;22;20007;-88
2021/01/14 07:17:39;;;;;;;2.15;1.20;;;22.90;81.20;;;;;;6331690;22;20307;-88
2021/01/14 07:20:10;;;;;;;;;;;22.90;81.10;;;;;;6332102;22;19995;-87
2021/01/14 07:22:59;;;;;;;3.58;1.60;;;22.90;81.40;;;;;;6331982;22;19903;-88
2021/01/14 07:25:26;;;;;;;2.10;1.50;;;22.80;82.00;;;;;;6330982;22;19999;-88
2021/01/14 07:27:53;;;;;;;3.38;1.30;;;22.80;81.60;;;;;;6331686;22;20010;-88
2021/01/14 07:30:21;;;;;;;3.38;1.20;;;22.70;82.30;;;;;;6331586;22;20235;-88
2021/01/14 07:32:57;;;;;;;3.10;1.60;;;22.70;82.40;;;;;;6349347;22;20015;-88
2021/01/14 07:35:34;;;;;;;3.40;1.60;;;22.70;82.40;;;;;;6357679;22;19995;-88
2021/01/14 07:38:01;;;;;;;2.10;1.33;;;22.70;82.60;;;;;;6357810;22;20018;-89
2021/01/14 07:40:29;;;;;;;2.50;1.33;;;22.60;82.50;;;;;;6357594;22;19995;-89
2021/01/14 07:42:57;;;;;;;3.05;2.03;;;22.60;83.00;;;;;;6357945;22;20020;-87
2021/01/14 07:45:24;;;;;;;2.70;1.38;;;22.60;82.80;;;;;;6359680;22;20002;-87
2021/01/14 07:47:51;;;;;;;2.90;1.63;;;22.60;82.80;;;;;;6359521;22;20006;-88
2021/01/14 07:50:25;;;;;;;3.15;1.88;;;22.60;83.40;;;;;;6359437;22;19998;-87
2021/01/14 07:52:56;;;;;;;5.25;1.40;;;22.60;82.50;;;;;;6361076;22;19999;-87
2021/01/14 07:55:31;;;;;;;2.15;1.50;;;22.50;82.80;;;;;;6359507;22;20024;-88
2021/01/14 07:58:20;;;;;;;2.33;1.60;;;22.50;83.60;;;;;;6361040;22;20251;-87
2021/01/14 08:01:09;;;;;;;2.17;1.58;;;22.50;83.40;;;;;;6359300;22;20039;-87
2021/01/14 08:03:40;;;;;;;5.10;1.70;;;22.40;83.90;;;;;;6359557;22;20018;-88
2021/01/14 08:06:30;;;;;;;2.13;1.60;;;22.50;84.10;;;;;;6360724;22;19995;-88
2021/01/14 08:08:58;;;;;;;2.05;1.70;;;22.40;84.20;;;;;;6359662;22;19995;-88
2021/01/14 08:11:27;;;;;;;3.42;1.67;;;22.40;84.60;;;;;;6359280;22;19999;-88
2021/01/14 08:14:29;;;;;;;2.95;1.88;;;22.30;84.80;;;;;;6359642;22;20054;-87
2021/01/14 08:16:56;;;;;;;2.17;1.60;;;22.30;85.10;;;;;;6359574;22;20017;-88
2021/01/14 08:19:29;;;;;;;3.25;1.75;;;22.30;85.40;;;;;;6359277;22;19995;-87
2021/01/14 08:21:59;;;;;;;3.67;1.90;;;22.20;85.20;;;;;;6360864;22;19995;-88
2021/01/14 08:24:54;;;;;;;4.13;1.80;;;22.20;85.40;;;;;;6359750;22;20070;-86
2021/01/14 08:27:37;;;;;;;4.07;1.70;;;22.20;85.20;;;;;;6359117;22;20010;-88
2021/01/14 08:30:14;;;;;;;2.72;1.83;;;22.20;85.60;;;;;;6359239;22;20010;-88
2021/01/14 08:33:06;;;;;;;3.45;1.77;;;22.10;85.70;;;;;;6358955;22;20230;-88
2021/01/14 08:35:34;;;;;;;5.00;2.00;;;22.10;85.90;;;;;;6358841;22;20007;-88
2021/01/14 08:38:11;;;;;;;4.60;1.90;;;22.10;86.20;;;;;;6360709;22;19993;-88
2021/01/14 08:40:39;;;;;;;5.63;2.13;;;22.10;85.80;;;;;;6360516;22;20013;-88
2021/01/14 08:43:12;;;;;;;2.80;1.50;;;22.10;86.00;;;;;;6361162;22;20010;-88
2021/01/14 08:45:56;;;;;;;2.97;1.48;;;22.10;85.60;;;;;;6359014;22;19999;-87
2021/01/14 08:48:26;;;;;;;2.53;1.73;;;22.10;86.20;;;;;;6359062;22;20023;-87
2021/01/14 08:50:56;;;;;;;3.97;1.80;;;22.10;86.00;;;;;;6359018;22;20180;-88
2021/01/14 08:53:26;;;;;;;2.85;1.92;;;22.00;86.10;;;;;;6358814;22;20010;-88
2021/01/14 08:56:02;;;;;;;2.90;2.15;;;22.10;86.30;;;;;;6359881;22;20040;-87
2021/01/14 08:58:43;;;;;;;8.60;2.50;;;22.00;86.70;;;;;;6359026;22;20018;-88
2021/01/14 09:01:17;;;;;;;2.88;1.88;;;22.00;86.80;;;;;;6358879;22;20003;-87
2021/01/14 09:03:45;;;;;;;4.07;2.05;;;22.00;86.90;;;;;;6360521;22;19995;-90
2021/01/14 09:06:12;;;;;;;3.90;2.03;;;22.00;86.80;;;;;;6358853;22;20030;-87
2021/01/14 09:09:05;;;;;;;2.88;2.10;;;22.00;86.90;;;;;;6356877;22;20010;-88
2021/01/14 09:11:32;;;;;;;3.45;2.00;;;21.90;86.80;;;;;;6239539;22;20031;-87
2021/01/14 09:14:16;;;;;;;4.00;2.22;;;21.90;86.90;;;;;;6371728;22;20010;-88
2021/01/14 09:17:07;;;;;;;3.38;2.30;;;21.90;87.30;;;;;;6360179;22;20037;-92
2021/01/14 09:19:58;;;;;;;4.82;2.17;;;21.90;87.30;;;;;;6358644;22;20036;-88
2021/01/14 09:22:26;;;;;;;4.82;2.17;;;22.00;87.30;;;;;;6358865;22;20006;-88
2021/01/14 09:25:05;;;;;;;3.45;2.20;;;21.90;87.70;;;;;;6358728;22;20056;-88
2021/01/14 09:27:40;;;;;;;5.40;2.40;;;21.90;87.90;;;;;;6332440;22;20002;-89
2021/01/14 09:30:15;;;;;;;5.60;1.90;;;21.90;87.50;;;;;;6360093;22;20036;-89
2021/01/14 09:32:42;;;;;;;2.15;1.50;;;21.90;87.00;;;;;;6359842;22;20015;-88
2021/01/14 09:35:14;;;;;;;3.50;1.83;;;21.90;86.00;;;;;;6332566;22;20006;-89
2021/01/14 09:37:42;;;;;;;3.45;1.73;;;22.00;85.60;;;;;;6332437;22;20002;-88
2021/01/14 09:40:11;;;;;;;1.83;1.40;;;22.00;85.60;;;;;;6332495;22;20003;-88
2021/01/14 09:42:37;;;;;;;3.63;1.48;;;22.00;84.90;;;;;;6332448;22;20009;-88
2021/01/14 09:45:05;;;;;;;3.03;1.90;;;22.00;84.30;;;;;;6359943;22;19999;-88
2021/01/14 09:47:31;;;;;;;3.15;1.50;;;22.00;83.70;;;;;;6332532;22;20003;-88
2021/01/14 09:50:00;;;;;;;3.75;1.70;;;22.00;83.20;;;;;;6332706;22;20291;-88
2021/01/14 09:52:41;;;;;;;1.65;1.40;;;22.00;82.30;;;;;;6332292;22;20089;-91
2021/01/14 09:55:13;;;;;;;1.98;1.23;;;22.00;82.50;;;;;;6327673;22;20009;-92
2021/01/14 09:57:56;;;;;;;2.05;1.25;;;21.90;81.30;;;;;;6324478;22;20010;-90
2021/01/14 10:00:30;;;;;;;4.07;1.48;;;22.00;81.60;;;;;;6325677;22;19987;-92
2021/01/14 10:03:09;;;;;;;3.13;1.50;;;22.00;81.50;;;;;;6358924;22;19995;-90
2021/01/14 10:05:37;;;;;;;4.05;1.50;;;22.00;81.30;;;;;;6331327;22;20009;-90
2021/01/14 10:08:14;;;;;;;1.60;1.20;;;22.00;81.10;;;;;;6329812;22;19999;-88
2021/01/14 10:10:51;;;;;;;2.05;1.40;;;22.00;81.50;;;;;;6356204;22;19998;-87
2021/01/14 10:13:17;;;;;;;2.10;1.13;;;22.00;80.60;;;;;;6330157;22;20058;-90
2021/01/14 10:15:44;;;;;;;1.40;1.05;;;22.10;81.10;;;;;;6329260;22;20026;-92
2021/01/14 10:18:27;;;;;;;1.70;1.00;;;22.10;80.40;;;;;;6328821;22;20302;-91
2021/01/14 10:21:02;;;;;;;3.03;1.50;;;22.10;80.80;;;;;;6329034;22;20001;-93
2021/01/14 10:23:30;;;;;;;2.05;1.20;;;22.00;80.80;;;;;;6329147;22;19995;-92
2021/01/14 10:25:56;;;;;;;3.85;1.25;;;22.00;80.70;;;;;;6324913;22;20280;-92
2021/01/14 10:28:23;;;;;;;2.05;1.13;;;21.90;80.60;;;;;;6325272;22;20120;-93
2021/01/14 10:30:51;;;;;;;2.70;1.10;;;22.00;80.30;;;;;;6325382;22;19987;-91
2021/01/14 10:33:18;;;;;;;2.05;1.20;;;22.00;80.70;;;;;;6354101;22;20296;-91
2021/01/14 10:35:54;;;;;;;3.03;1.30;;;21.90;80.70;;;;;;6326699;22;20018;-90
2021/01/14 10:38:21;;;;;;;4.03;1.60;;;21.90;80.90;;;;;;6354744;22;19995;-92
2021/01/14 10:40:51;;;;;;;2.45;1.50;;;21.90;81.30;;;;;;6324305;22;19993;-91
2021/01/14 10:43:38;;;;;;;2.40;1.58;;;21.90;82.00;;;;;;6327205;22;20181;-90
2021/01/14 10:46:06;;;;;;;2.90;1.58;;;21.90;82.00;;;;;;6324216;22;20035;-92
2021/01/14 10:48:38;;;;;;;2.75;1.50;;;21.90;82.60;;;;;;6325131;22;20010;-90
2021/01/14 10:51:05;;;;;;;4.10;2.00;;;21.90;82.70;;;;;;6324788;22;20025;-90
2021/01/14 10:53:38;;;;;;;2.08;1.63;;;21.80;83.00;;;;;;6324370;22;20009;-90
2021/01/14 10:56:12;;;;;;;3.30;2.03;;;21.80;83.50;;;;;;6351840;22;19991;-90
2021/01/14 10:58:40;;;;;;;3.72;1.70;;;21.80;84.30;;;;;;6324455;22;19998;-91
2021/01/14 11:01:20;;;;;;;4.10;2.13;;;21.70;84.40;;;;;;6324478;22;20219;-91
2021/01/14 11:03:47;;;;;;;4.45;1.92;;;21.70;84.70;;;;;;6326037;22;20022;-92
2021/01/14 11:06:29;;;;;;;3.72;2.30;;;21.70;84.80;;;;;;6332306;22;20002;-90
2021/01/14 11:09:11;;;;;;;4.65;1.95;;;21.70;85.20;;;;;;6307005;22;20200;-91
2021/01/14 11:11:44;;;;;;;5.32;2.47;;;21.70;85.00;;;;;;6323624;22;20002;-90
2021/01/14 11:14:15;;;;;;;6.00;2.88;;;21.70;85.20;;;;;;6328649;22;19994;-90
2021/01/14 11:16:45;;;;;;;4.25;2.90;;;21.70;85.00;;;;;;6326806;22;19999;-92
2021/01/14 11:19:15;;;;;;;10.18;5.13;;;21.70;85.80;;;;;;6330815;22;20040;-89
2021/01/14 11:21:43;;;;;;;8.13;5.07;;;21.70;84.90;;;;;;6327708;22;20007;-92
2021/01/14 11:24:14;;;;;;;8.70;3.67;;;21.70;84.50;;;;;;6353874;22;20005;-91
2021/01/14 11:26:40;;;;;;;8.02;4.45;;;21.80;84.60;;;;;;6327039;22;19998;-91
2021/01/14 11:29:11;;;;;;;13.30;7.80;;;21.80;84.40;;;;;;6324219;22;20310;-89
2021/01/14 11:31:38;;;;;;;9.32;4.90;;;21.80;84.30;;;;;;6354183;22;20011;-90
2021/01/14 11:34:06;;;;;;;9.38;5.28;;;21.80;83.60;;;;;;6328146;22;19995;-88
2021/01/14 11:36:33;;;;;;;10.27;5.53;;;21.90;84.20;;;;;;6323946;22;20172;-90
2021/01/14 11:38:59;;;;;;;5.90;3.78;;;21.90;83.40;;;;;;6350627;22;20028;-90
2021/01/14 11:41:26;;;;;;;4.55;2.80;;;22.00;82.80;;;;;;6354404;22;19986;-91
2021/01/14 11:43:52;;;;;;;4.15;2.90;;;22.00;82.50;;;;;;6323103;22;20036;-93
2021/01/14 11:46:22;;;;;;;4.45;2.63;;;22.10;82.50;;;;;;6322684;22;19999;-91
2021/01/14 11:48:53;;;;;;;4.32;2.20;;;22.20;82.20;;;;;;6325579;22;20002;-93
2021/01/14 11:51:20;;;;;;;4.15;2.08;;;22.20;81.80;;;;;;6324271;22;19998;-92
2021/01/14 11:53:48;;;;;;;4.00;2.13;;;22.30;81.90;;;;;;6324802;22;20272;-93
2021/01/14 11:56:18;;;;;;;3.60;1.85;;;22.50;81.40;;;;;;6323676;22;20003;-92
2021/01/14 11:58:45;;;;;;;5.18;2.28;;;22.60;80.10;;;;;;6326035;22;19991;-92
2021/01/14 12:01:11;;;;;;;3.35;2.30;;;22.70;79.50;;;;;;6323512;22;19999;-92
2021/01/14 12:03:39;;;;;;;2.80;2.13;;;22.90;79.70;;;;;;6324754;22;20058;-90
2021/01/14 12:06:06;;;;;;;3.78;1.90;;;23.00;79.30;;;;;;6327860;22;20010;-92
2021/01/14 12:08:32;;;;;;;3.28;1.90;;;23.10;78.80;;;;;;6326159;22;20014;-93
2021/01/14 12:10:59;;;;;;;2.58;1.85;;;23.20;78.90;;;;;;6323967;22;20184;-92
2021/01/14 12:13:26;;;;;;;3.88;2.10;;;23.30;79.60;;;;;;6323423;22;19998;-94
2021/01/14 12:15:55;;;;;;;4.88;2.03;;;23.40;79.80;;;;;;6323724;22;20003;-93
2021/01/14 12:18:23;;;;;;;3.72;2.33;;;23.40;80.10;;;;;;6322971;22;20018;-90
2021/01/14 12:20:50;;;;;;;4.43;2.20;;;23.50;80.10;;;;;;6322716;22;20258;-93
2021/01/14 12:23:23;;;;;;;2.60;1.75;;;23.60;80.40;;;;;;6323484;22;20036;-92
2021/01/14 12:25:49;;;;;;;6.15;2.47;;;23.60;80.30;;;;;;6324881;22;19999;-93
2021/01/14 12:28:16;;;;;;;3.75;2.15;;;23.70;79.90;;;;;;6323682;22;20005;-92
2021/01/14 12:30:45;;;;;;;6.78;2.70;;;23.80;79.00;;;;;;6325868;22;19995;-93
2021/01/14 12:33:14;;;;;;;2.85;1.77;;;23.90;80.20;;;;;;6312986;22;20011;-93
2021/01/14 12:36:06;;;;;;;4.32;2.20;;;24.00;78.60;;;;;;6290667;22;20062;-91
2021/01/14 12:38:33;;;;;;;3.92;2.00;;;24.20;78.20;;;;;;6304709;22;20000;-90
2021/01/14 12:41:00;;;;;;;4.40;1.90;;;24.30;77.60;;;;;;6292268;22;20043;-94
2021/01/14 12:43:27;;;;;;;4.30;1.80;;;24.50;77.50;;;;;;6291884;22;20042;-94
2021/01/14 12:45:53;;;;;;;4.38;1.70;;;24.60;77.40;;;;;;6292458;22;20003;-92
2021/01/14 12:48:20;;;;;;;6.18;2.80;;;24.80;77.30;;;;;;6293336;22;20011;-94
2021/01/14 12:50:47;;;;;;;9.15;3.88;;;24.90;75.90;;;;;;6318646;22;20018;-94
2021/01/14 12:53:14;;;;;;;6.65;4.30;;;25.10;77.30;;;;;;6291433;22;20349;-91
2021/01/14 12:55:49;;;;;;;4.00;2.17;;;25.30;74.80;;;;;;6317723;22;20006;-94
2021/01/14 12:58:18;;;;;;;2.47;1.40;;;25.40;75.30;;;;;;6290975;22;20121;-93
2021/01/14 13:00:48;;;;;;;2.25;1.58;;;25.60;75.10;;;;;;6317927;22;20002;-91
2021/01/14 13:03:14;;;;;;;2.30;1.73;;;25.70;74.10;;;;;;6318481;22;19995;-92
2021/01/14 13:05:50;;;;;;;3.33;1.90;;;25.90;74.00;;;;;;6291806;22;20015;-93
2021/01/14 13:08:17;;;;;;;7.28;2.00;;;26.30;74.10;;;;;;6291706;22;20333;-93
2021/01/14 13:10:46;;;;;;;4.38;1.83;;;26.40;73.60;;;;;;6326348;22;20009;-89
2021/01/14 13:13:46;;;;;;;6.93;3.00;;;26.80;73.10;;;;;;6355878;22;20005;-91
2021/01/14 13:16:57;;;;;;;2.97;2.08;;;26.90;73.20;;;;;;6233317;23;20007;-90
2021/01/14 13:19:26;;;;;;;4.93;1.27;;;27.10;71.90;;;;;;6198022;23;20310;-93
2021/01/14 13:22:01;;;;;;;3.00;1.40;;;27.30;71.40;;;;;;6372585;22;19994;-91
2021/01/14 13:24:29;;;;;;;5.63;1.48;;;27.30;69.60;;;;;;6352702;22;19995;-91